Time;durP1;ratioP1;P1;durP2;ratioP2;P2;SDS_P1;SDS_P2;PMS_P1;PMS_P2;Temp;Humidity;BMP_temperature;BMP_pressure;BME280_temperature;BME280_humidity;BME280_pressure;Samples;Min_cycle;Max_cycle;Signal;HPM_P1;HPM_P2
2022/03/20 00:00:50;;;;;;;69.70;41.30;;;;;;;3.49;37.12;103299.54;105710;1280;22549;-77
2022/03/20 00:03:16;;;;;;;65.90;40.00;;;;;;;3.46;37.11;103297.27;105714;1279;25293;-77
2022/03/20 00:05:47;;;;;;;65.30;41.40;;;;;;;3.48;37.16;103303.35;105718;1279;25467;-77
2022/03/20 00:08:13;;;;;;;67.80;40.90;;;;;;;3.48;37.31;103300.02;105890;1279;25342;-76
2022/03/20 00:11:01;;;;;;;75.90;42.10;;;;;;;3.41;37.39;103298.36;105772;1279;23894;-76
2022/03/20 00:13:28;;;;;;;69.50;41.30;;;;;;;3.36;37.53;103303.95;105695;1275;25372;-76
2022/03/20 00:15:57;;;;;;;70.50;42.20;;;;;;;3.31;37.65;103299.91;106056;1273;24685;-77
2022/03/20 00:18:26;;;;;;;69.70;44.10;;;;;;;3.15;37.69;103303.38;106078;1273;22555;-76
2022/03/20 00:20:55;;;;;;;67.70;41.90;;;;;;;2.92;37.96;103297.34;106259;1273;25381;-76
2022/03/20 00:23:23;;;;;;;71.10;40.50;;;;;;;2.85;38.29;103298.73;106170;1273;24146;-75
2022/03/20 00:25:51;;;;;;;74.80;43.00;;;;;;;2.85;38.47;103295.45;106234;1273;22716;-74
2022/03/20 00:28:23;;;;;;;62.90;40.90;;;;;;;2.87;38.59;103293.16;106179;1273;22572;-73
2022/03/20 00:30:50;;;;;;;70.50;40.30;;;;;;;2.89;38.61;103295.71;106308;1274;24063;-75
2022/03/20 00:33:17;;;;;;;70.40;41.00;;;;;;;2.93;38.64;103293.18;106167;1273;22721;-75
2022/03/20 00:35:44;;;;;;;61.00;40.40;;;;;;;2.96;38.41;103299.52;106156;1273;25406;-79
2022/03/20 00:38:11;;;;;;;65.40;43.10;;;;;;;2.96;38.32;103299.51;105920;1273;26966;-77
2022/03/20 00:40:37;;;;;;;72.70;42.60;;;;;;;2.93;38.40;103300.39;106005;1273;22778;-74
2022/03/20 00:43:05;;;;;;;70.30;42.00;;;;;;;2.90;38.41;103299.80;106018;1273;25369;-76
2022/03/20 00:45:31;;;;;;;66.50;40.30;;;;;;;2.90;38.46;103300.64;105584;1280;25444;-77
2022/03/20 00:47:58;;;;;;;66.70;40.60;;;;;;;2.87;38.52;103300.64;105470;1279;22544;-77
2022/03/20 00:50:24;;;;;;;72.40;39.00;;;;;;;2.89;38.53;103302.52;105548;1279;22551;-77
2022/03/20 00:52:50;;;;;;;63.00;38.10;;;;;;;2.82;38.48;103300.97;105851;1279;22554;-76
2022/03/20 00:55:16;;;;;;;57.20;35.20;;;;;;;2.82;38.49;103301.70;107472;1279;22624;-76
2022/03/20 00:57:42;;;;;;;63.90;39.40;;;;;;;2.83;38.47;103302.95;108820;1280;22544;-83
2022/03/20 01:00:09;;;;;;;62.10;39.80;;;;;;;2.85;38.69;103302.41;107902;1281;22538;-75
2022/03/20 01:02:39;;;;;;;70.40;42.50;;;;;;;2.84;38.97;103300.11;105974;1281;22616;-77
2022/03/20 01:05:06;;;;;;;71.80;44.40;;;;;;;2.85;38.98;103300.68;106403;1274;23992;-75
2022/03/20 01:07:32;;;;;;;76.80;46.40;;;;;;;2.87;39.07;103300.44;107243;1274;22736;-76
2022/03/20 01:10:01;;;;;;;75.60;46.10;;;;;;;2.84;39.26;103305.68;108172;1274;22491;-75
2022/03/20 01:12:28;;;;;;;79.60;45.60;;;;;;;2.83;39.38;103307.35;108889;1274;22604;-74
2022/03/20 01:14:56;;;;;;;74.60;44.40;;;;;;;2.77;39.31;103308.16;108661;1274;22685;-75
2022/03/20 01:17:23;;;;;;;73.20;43.10;;;;;;;2.75;39.47;103309.91;108957;1274;22561;-76
2022/03/20 01:19:50;;;;;;;71.20;43.20;;;;;;;2.77;39.47;103312.48;108639;1273;22541;-76
2022/03/20 01:22:17;;;;;;;77.90;45.60;;;;;;;2.78;39.50;103308.52;106545;1274;26514;-77
2022/03/20 01:24:43;;;;;;;70.90;43.60;;;;;;;2.78;39.32;103307.86;106210;1273;23851;-81
2022/03/20 01:27:09;;;;;;;78.80;45.90;;;;;;;2.76;39.33;103312.05;105545;1279;24513;-76
2022/03/20 01:29:35;;;;;;;75.30;44.80;;;;;;;2.74;39.47;103312.95;105600;1279;24251;-78
2022/03/20 01:32:02;;;;;;;79.80;46.40;;;;;;;2.69;39.52;103313.13;105564;1279;25331;-78
2022/03/20 01:34:28;;;;;;;89.20;48.50;;;;;;;2.63;39.61;103312.72;105612;1279;25505;-82
2022/03/20 01:36:55;;;;;;;100.70;50.70;;;;;;;2.55;39.75;103309.39;105561;1279;23949;-75
2022/03/20 01:39:21;;;;;;;81.30;47.10;;;;;;;2.49;40.10;103304.58;105354;1279;25488;-76
2022/03/20 01:41:47;;;;;;;84.00;47.10;;;;;;;2.48;39.94;103306.29;105541;1279;22579;-76
2022/03/20 01:44:14;;;;;;;85.90;48.90;;;;;;;2.48;40.07;103302.83;104952;1287;24251;-73
2022/03/20 01:46:41;;;;;;;91.10;51.20;;;;;;;2.47;40.10;103302.04;104885;1287;25747;-78
2022/03/20 01:49:07;;;;;;;100.70;51.50;;;;;;;2.45;40.22;103299.81;105058;1287;22581;-77
2022/03/20 01:54:18;;;;;;;90.30;52.40;;;;;;;2.39;40.04;103303.00;105442;1281;22703;-76
2022/03/20 01:56:48;;;;;;;87.60;51.00;;;;;;;2.36;40.08;103300.21;105575;1281;26788;-80
2022/03/20 01:59:16;;;;;;;98.10;49.00;;;;;;;2.31;40.01;103293.96;104913;1287;25299;-76
2022/03/20 02:01:43;;;;;;;91.20;48.30;;;;;;;2.26;40.07;103300.71;104737;1282;25499;-76
2022/03/20 02:04:14;;;;;;;86.00;50.30;;;;;;;2.15;40.24;103300.08;105367;1281;22553;-77
2022/03/20 02:06:43;;;;;;;96.10;48.90;;;;;;;2.10;40.53;103300.32;105357;1282;26527;-77
2022/03/20 02:09:11;;;;;;;90.20;48.30;;;;;;;2.11;40.42;103298.94;105058;1285;22643;-79
2022/03/20 02:11:37;;;;;;;93.10;50.80;;;;;;;2.09;40.47;103301.61;105142;1285;24233;-80
2022/03/20 02:14:07;;;;;;;84.10;48.20;;;;;;;2.05;40.64;103299.89;105256;1285;25651;-78
2022/03/20 02:16:33;;;;;;;92.30;48.00;;;;;;;2.07;40.87;103298.98;105480;1284;22772;-75
2022/03/20 02:19:00;;;;;;;83.10;48.60;;;;;;;1.98;40.72;103294.89;105936;1279;24311;-77
2022/03/20 02:21:39;;;;;;;80.90;49.00;;;;;;;1.90;40.80;103295.70;105273;1284;22608;-76
2022/03/20 02:24:34;;;;;;;82.80;49.20;;;;;;;1.86;40.93;103290.58;105370;1284;24229;-77
2022/03/20 02:27:12;;;;;;;90.30;49.00;;;;;;;1.92;41.06;103288.58;105383;1279;22774;-76
2022/03/20 02:29:40;;;;;;;101.30;51.20;;;;;;;1.95;41.30;103287.42;105041;1285;25307;-78
2022/03/20 02:32:09;;;;;;;87.80;50.80;;;;;;;1.86;41.27;103286.58;105253;1285;25763;-76
2022/03/20 02:34:37;;;;;;;88.10;50.30;;;;;;;1.70;41.49;103289.20;104955;1285;22795;-75
2022/03/20 02:37:04;;;;;;;80.90;45.10;;;;;;;1.71;41.61;103288.45;105123;1287;22582;-73
2022/03/20 02:39:31;;;;;;;76.40;44.70;;;;;;;1.78;41.24;103288.20;105084;1285;24512;-78
2022/03/20 02:42:02;;;;;;;76.80;45.50;;;;;;;1.83;41.34;103288.98;105175;1285;22544;-79
2022/03/20 02:45:02;;;;;;;74.70;43.10;;;;;;;1.87;41.26;103287.65;105169;1284;24100;-78
2022/03/20 02:47:33;;;;;;;62.30;39.40;;;;;;;1.92;41.23;103288.21;105881;1275;22612;-76
2022/03/20 02:50:17;;;;;;;71.10;40.70;;;;;;;1.91;40.86;103285.69;106042;1275;24233;-79
2022/03/20 02:52:51;;;;;;;65.90;40.30;;;;;;;1.97;40.67;103290.35;106619;1275;25271;-77
2022/03/20 02:55:23;;;;;;;63.50;40.80;;;;;;;1.98;40.65;103291.46;106479;1274;22788;-78
2022/03/20 02:57:50;;;;;;;63.50;38.70;;;;;;;1.97;40.59;103292.06;106160;1276;25516;-83
2022/03/20 03:00:21;;;;;;;68.10;39.60;;;;;;;1.90;40.51;103293.25;106157;1276;26652;-76
2022/03/20 03:02:50;;;;;;;66.50;40.70;;;;;;;1.91;40.53;103292.67;106310;1275;22535;-77
2022/03/20 03:05:19;;;;;;;77.00;41.60;;;;;;;1.91;40.53;103296.61;106166;1274;25381;-81
2022/03/20 03:13:20;;;;;;;79.30;45.50;;;;;;;1.82;40.67;103300.16;105509;1279;25498;-77
2022/03/20 03:15:46;;;;;;;80.20;45.30;;;;;;;1.81;40.81;103306.33;105575;1279;23088;-77
2022/03/20 03:18:12;;;;;;;80.70;44.40;;;;;;;1.77;40.87;103306.04;105654;1281;22557;-78
2022/03/20 03:20:39;;;;;;;82.10;46.80;;;;;;;1.78;40.94;103305.57;105628;1279;22713;-76
2022/03/20 03:23:05;;;;;;;82.70;44.70;;;;;;;1.76;41.19;103302.66;105241;1285;25434;-77
2022/03/20 03:25:35;;;;;;;81.40;47.50;;;;;;;1.72;41.18;103301.92;105188;1285;22737;-78
2022/03/20 03:28:02;;;;;;;82.40;46.70;;;;;;;1.64;41.05;103301.48;105174;1284;25423;-79
2022/03/20 03:30:28;;;;;;;73.40;45.40;;;;;;;1.57;41.09;103299.74;105210;1284;25443;-76
2022/03/20 03:32:55;;;;;;;79.80;46.60;;;;;;;1.55;41.34;103293.70;105650;1279;23772;-79
2022/03/20 03:38:14;;;;;;;85.00;49.60;;;;;;;1.54;41.52;103293.23;105674;1281;25375;-75
2022/03/20 03:40:43;;;;;;;84.80;48.50;;;;;;;1.49;41.45;103291.52;105767;1273;24249;-81
2022/03/20 03:43:10;;;;;;;82.30;47.30;;;;;;;1.48;41.44;103290.90;106195;1273;24259;-76
2022/03/20 03:45:41;;;;;;;93.30;49.60;;;;;;;1.51;41.39;103293.21;106043;1273;25359;-77
2022/03/20 03:48:08;;;;;;;83.70;47.60;;;;;;;1.49;41.43;103293.26;106281;1273;22626;-74
2022/03/20 03:50:36;;;;;;;75.50;45.00;;;;;;;1.39;41.35;103293.35;106219;1274;23960;-74
2022/03/20 03:53:03;;;;;;;75.00;44.60;;;;;;;1.27;41.57;103298.20;106462;1273;25662;-77
2022/03/20 03:55:31;;;;;;;77.40;44.90;;;;;;;1.18;41.60;103296.11;106279;1273;22844;-76
2022/03/20 03:57:59;;;;;;;78.10;44.10;;;;;;;1.09;41.79;103292.14;106416;1273;23964;-79
2022/03/20 04:00:27;;;;;;;70.00;43.60;;;;;;;1.06;41.99;103296.95;106298;1273;22636;-76
2022/03/20 04:02:53;;;;;;;74.60;43.70;;;;;;;1.08;42.35;103302.87;106297;1273;22566;-81
2022/03/20 04:05:20;;;;;;;66.10;42.40;;;;;;;1.15;42.52;103304.02;105947;1279;22530;-77
2022/03/20 04:07:47;;;;;;;81.10;45.20;;;;;;;1.16;42.47;103307.11;105386;1284;25395;-79
2022/03/20 04:10:16;;;;;;;84.70;45.30;;;;;;;1.18;42.32;103305.48;105462;1284;22556;-75
2022/03/20 04:12:43;;;;;;;79.50;46.00;;;;;;;1.21;42.34;103305.58;105354;1284;25393;-76
2022/03/20 04:15:14;;;;;;;79.40;45.20;;;;;;;1.19;42.42;103307.31;105454;1284;25805;-75
2022/03/20 04:17:42;;;;;;;77.60;44.70;;;;;;;1.11;42.22;103307.05;105217;1287;25397;-76
2022/03/20 04:20:10;;;;;;;85.00;47.00;;;;;;;1.08;42.42;103303.23;105456;1284;22562;-76
2022/03/20 04:22:40;;;;;;;72.60;44.40;;;;;;;1.01;42.43;103304.74;104912;1287;22570;-73
2022/03/20 04:25:07;;;;;;;85.00;47.10;;;;;;;1.04;42.51;103307.70;105408;1282;24247;-75
2022/03/20 04:27:33;;;;;;;70.80;44.40;;;;;;;1.07;42.63;103309.05;105279;1283;25471;-75
2022/03/20 04:30:00;;;;;;;72.10;44.80;;;;;;;1.09;42.56;103307.11;104726;1288;23629;-75
2022/03/20 04:32:26;;;;;;;68.80;42.90;;;;;;;1.05;42.55;103307.49;104857;1282;26054;-78
2022/03/20 04:34:53;;;;;;;73.30;42.80;;;;;;;1.05;42.64;103312.16;105316;1282;22563;-75
2022/03/20 04:37:21;;;;;;;83.50;45.10;;;;;;;1.08;42.58;103309.41;105351;1282;24295;-76
2022/03/20 04:39:48;;;;;;;79.80;43.60;;;;;;;1.06;42.70;103305.67;105340;1282;23227;-74
2022/03/20 04:42:14;;;;;;;72.40;42.60;;;;;;;1.03;42.56;103309.68;105657;1280;22632;-74
2022/03/20 04:44:43;;;;;;;72.10;41.50;;;;;;;1.00;42.52;103308.98;105303;1282;22563;-75
2022/03/20 04:58:29;;;;;;;70.00;42.70;;;;;;;1.01;42.46;103310.45;105380;1282;25610;-75
2022/03/20 04:58:31;;;;;;;67.70;39.80;;;;;;;0.91;42.62;103326.35;106006;1278;22632;-79
2022/03/20 05:00:58;;;;;;;59.80;39.10;;;;;;;0.93;42.39;103318.86;105443;1284;24570;-78
2022/03/20 05:03:24;;;;;;;66.10;40.10;;;;;;;0.97;42.54;103318.83;105966;1281;23023;-76
2022/03/20 05:05:51;;;;;;;63.40;38.70;;;;;;;0.95;42.39;103325.07;106189;1280;23943;-75
2022/03/20 05:08:17;;;;;;;67.00;40.30;;;;;;;0.93;42.49;103328.44;106295;1279;25375;-76
2022/03/20 05:13:30;;;;;;;72.90;40.00;;;;;;;0.93;42.52;103335.55;105261;1287;25266;-78
2022/03/20 05:15:57;;;;;;;62.90;38.20;;;;;;;0.97;42.49;103333.44;105136;1285;25251;-85
2022/03/20 05:18:24;;;;;;;60.40;38.80;;;;;;;1.02;42.57;103334.16;107057;1279;22670;-88
2022/03/20 05:20:52;;;;;;;72.60;40.60;;;;;;;1.09;42.45;103333.81;107872;1281;22890;-89
2022/03/20 05:23:23;;;;;;;64.20;40.10;;;;;;;1.11;42.32;103336.76;108149;1281;22505;-89
2022/03/20 05:25:49;;;;;;;65.10;38.40;;;;;;;1.15;42.35;103336.00;108388;1281;22663;-89
2022/03/20 05:28:17;;;;;;;65.00;36.60;;;;;;;1.18;42.41;103342.67;108419;1281;22687;-87
2022/03/20 05:30:44;;;;;;;66.00;37.30;;;;;;;1.17;42.23;103345.54;108595;1277;22671;-88
2022/03/20 05:33:11;;;;;;;62.70;37.10;;;;;;;1.14;42.15;103348.77;109214;1276;22726;-87
2022/03/20 05:35:40;;;;;;;60.40;36.40;;;;;;;1.13;42.15;103350.13;109179;1276;22723;-89
2022/03/20 05:38:09;;;;;;;58.40;37.10;;;;;;;1.10;42.33;103354.55;108926;1276;22797;-81
2022/03/20 05:40:38;;;;;;;61.80;36.60;;;;;;;1.08;42.18;103356.80;106801;1273;25376;-78
2022/03/20 05:43:05;;;;;;;57.10;35.40;;;;;;;1.07;42.31;103358.66;107227;1273;25376;-84
2022/03/20 05:45:31;;;;;;;55.70;35.20;;;;;;;1.12;42.30;103356.23;108153;1273;22702;-87
2022/03/20 05:47:59;;;;;;;55.30;35.60;;;;;;;1.13;42.26;103355.83;108509;1273;25437;-90
2022/03/20 05:50:26;;;;;;;59.00;35.80;;;;;;;1.21;42.17;103360.94;108228;1273;22491;-89
2022/03/20 05:52:52;;;;;;;58.60;36.30;;;;;;;1.22;42.12;103356.30;107890;1273;25798;-89
2022/03/20 05:58:01;;;;;;;55.70;35.40;;;;;;;1.25;42.13;103353.56;108254;1273;24229;-89
2022/03/20 05:58:05;;;;;;;54.70;34.80;;;;;;;1.36;42.17;103361.23;108535;1273;22484;-84
2022/03/20 06:00:32;;;;;;;59.50;35.20;;;;;;;1.40;42.07;103363.91;108789;1273;22489;-89
2022/03/20 06:02:58;;;;;;;58.10;34.10;;;;;;;1.44;42.03;103367.21;107842;1273;25367;-88
2022/03/20 06:05:25;;;;;;;56.30;34.80;;;;;;;1.53;41.97;103369.59;108254;1272;25258;-86
2022/03/20 06:07:52;;;;;;;56.70;33.20;;;;;;;1.59;41.88;103370.77;108485;1273;25380;-88
2022/03/20 06:10:20;;;;;;;52.70;33.90;;;;;;;1.68;41.70;103376.80;108161;1273;22949;-86
2022/03/20 06:12:48;;;;;;;54.40;32.30;;;;;;;1.74;41.73;103377.25;108674;1273;25254;-87
2022/03/20 06:15:14;;;;;;;52.80;31.20;;;;;;;1.79;41.57;103374.17;108884;1273;22571;-86
2022/03/20 06:17:46;;;;;;;46.00;29.50;;;;;;;1.90;41.28;103376.58;108599;1273;22481;-88
2022/03/20 06:20:16;;;;;;;44.40;29.50;;;;;;;2.03;40.96;103382.18;108755;1273;22487;-86
2022/03/20 06:22:45;;;;;;;44.20;29.40;;;;;;;2.13;40.72;103373.19;109100;1273;22546;-87
2022/03/20 06:25:15;;;;;;;46.20;26.70;;;;;;;2.28;40.64;103381.21;108416;1273;22575;-87
2022/03/20 06:27:43;;;;;;;40.70;25.00;;;;;;;2.39;40.26;103381.98;107286;1273;25384;-88
2022/03/20 06:30:11;;;;;;;32.50;20.70;;;;;;;2.48;39.61;103383.90;108001;1273;22545;-84
2022/03/20 06:32:38;;;;;;;39.10;24.20;;;;;;;2.58;39.13;103384.96;107824;1273;26530;-87
2022/03/20 06:35:06;;;;;;;43.90;24.20;;;;;;;2.69;39.22;103387.65;107483;1274;22502;-86
2022/03/20 06:37:42;;;;;;;45.20;27.10;;;;;;;2.80;39.33;103390.66;108073;1273;26616;-85
2022/03/20 06:40:11;;;;;;;48.10;27.90;;;;;;;2.87;39.42;103392.19;107914;1273;25245;-83
2022/03/20 06:42:37;;;;;;;39.10;24.80;;;;;;;2.89;39.35;103392.02;107767;1273;22555;-87
2022/03/20 06:45:08;;;;;;;39.40;25.00;;;;;;;2.94;39.16;103393.05;107665;1273;22540;-85
2022/03/20 06:47:36;;;;;;;36.00;22.20;;;;;;;3.01;38.95;103392.67;107736;1273;23867;-88
2022/03/20 06:50:04;;;;;;;26.70;18.10;;;;;;;3.10;38.27;103393.98;107889;1273;22600;-86
2022/03/20 06:52:31;;;;;;;26.20;16.10;;;;;;;3.19;37.58;103397.73;108534;1273;22703;-87
2022/03/20 06:54:59;;;;;;;26.90;16.40;;;;;;;3.28;37.21;103391.67;108135;1273;22498;-86
2022/03/20 06:57:27;;;;;;;30.40;17.00;;;;;;;3.34;36.76;103396.84;108014;1273;22652;-86
2022/03/20 06:59:56;;;;;;;23.60;16.10;;;;;;;3.42;36.20;103398.77;108066;1273;22550;-87
2022/03/20 07:02:23;;;;;;;23.50;15.30;;;;;;;3.50;36.13;103404.55;108060;1273;22540;-89
2022/03/20 07:04:51;;;;;;;24.70;15.20;;;;;;;3.55;35.91;103400.50;108098;1273;22555;-89
2022/03/20 07:07:18;;;;;;;26.30;16.30;;;;;;;3.66;35.72;103408.95;108157;1273;22607;-87
2022/03/20 07:09:44;;;;;;;23.80;16.00;;;;;;;3.73;35.54;103406.96;108093;1273;22553;-87
2022/03/20 07:12:11;;;;;;;25.40;16.30;;;;;;;3.80;35.44;103407.99;107714;1273;22544;-85
2022/03/20 07:14:39;;;;;;;25.20;16.20;;;;;;;3.89;35.34;103406.29;107362;1273;24328;-86
2022/03/20 07:17:13;;;;;;;23.40;15.50;;;;;;;3.95;35.13;103401.66;107360;1273;24164;-88
2022/03/20 07:19:44;;;;;;;25.40;15.70;;;;;;;4.02;35.01;103399.81;106535;1273;22561;-89
2022/03/20 07:22:13;;;;;;;24.70;14.10;;;;;;;4.10;34.82;103401.37;106436;1273;23007;-89
2022/03/20 07:24:41;;;;;;;25.30;16.10;;;;;;;4.15;34.51;103404.85;106409;1273;22555;-89
2022/03/20 07:29:54;;;;;;;;;;;;;;;4.27;34.26;103396.42;106223;1276;25357;-85
2022/03/20 07:32:21;;;;;;;21.30;13.80;;;;;;;4.35;34.04;103395.70;106116;1277;24381;-87
2022/03/20 07:34:48;;;;;;;19.60;14.10;;;;;;;4.41;33.92;103388.73;106236;1277;22672;-84
2022/03/20 07:37:22;;;;;;;25.90;14.90;;;;;;;4.46;33.51;103387.48;108828;1263;22386;31
2022/03/20 07:39:51;;;;;;;19.60;13.80;;;;;;;4.50;33.50;103383.21;107222;1267;24916;-86
2022/03/20 07:42:19;;;;;;;22.80;13.70;;;;;;;4.59;33.51;103390.54;106911;1275;22258;-89
2022/03/20 07:44:48;;;;;;;18.90;12.70;;;;;;;4.69;33.24;103389.97;106368;1276;22532;-90
2022/03/20 07:50:12;;;;;;;19.10;11.80;;;;;;;4.92;32.87;103391.05;109484;1261;22644;-92
2022/03/20 07:52:39;;;;;;;19.00;12.90;;;;;;;4.96;32.65;103384.01;107797;1273;22842;-90
2022/03/20 07:55:13;;;;;;;21.40;13.80;;;;;;;5.08;32.41;103386.47;108953;1264;22496;31
2022/03/20 07:57:43;;;;;;;19.30;13.00;;;;;;;5.15;32.17;103387.60;108202;1265;22613;-91
2022/03/20 08:00:23;;;;;;;21.90;13.20;;;;;;;5.23;32.15;103388.58;108067;1263;23795;31
2022/03/20 08:02:53;;;;;;;21.20;12.70;;;;;;;5.35;32.14;103389.98;109428;1263;22561;-93
2022/03/20 08:05:20;;;;;;;19.90;13.40;;;;;;;5.47;32.03;103388.41;109242;1261;23445;-85
2022/03/20 08:07:46;;;;;;;22.00;13.20;;;;;;;5.57;31.84;103391.64;107478;1274;24253;-86
2022/03/20 08:10:13;;;;;;;21.20;14.00;;;;;;;5.63;31.57;103397.94;106285;1274;26744;-84
2022/03/20 08:12:40;;;;;;;21.70;14.40;;;;;;;5.69;31.55;103393.93;106388;1274;22610;-88
2022/03/20 08:15:09;;;;;;;27.50;15.40;;;;;;;5.81;31.64;103393.58;106641;1274;26572;-89
2022/03/20 08:17:46;;;;;;;23.20;15.00;;;;;;;5.93;31.82;103390.28;106740;1274;22553;-88
2022/03/20 08:20:14;;;;;;;22.90;14.50;;;;;;;6.08;31.64;103395.84;106303;1274;22490;-88
2022/03/20 08:22:40;;;;;;;24.60;14.80;;;;;;;6.20;31.67;103392.38;106325;1274;24957;-88
2022/03/20 08:25:07;;;;;;;24.00;15.20;;;;;;;6.31;31.50;103390.71;106128;1274;25273;-82
2022/03/20 08:27:49;;;;;;;19.80;13.80;;;;;;;6.44;31.19;103386.88;106091;1274;22561;-84
2022/03/20 08:30:17;;;;;;;20.70;13.90;;;;;;;6.59;31.08;103389.29;106064;1276;25368;-85
2022/03/20 08:32:47;;;;;;;21.20;13.30;;;;;;;6.72;30.86;103382.98;106095;1274;22543;-84
2022/03/20 08:35:15;;;;;;;22.40;14.10;;;;;;;6.88;30.71;103390.89;105851;1281;22769;-85
2022/03/20 08:37:45;;;;;;;17.80;13.20;;;;;;;7.03;30.36;103388.48;107793;1281;22781;-84
2022/03/20 08:40:15;;;;;;;19.50;13.40;;;;;;;7.17;30.31;103386.63;108456;1281;22520;-83
2022/03/20 08:42:48;;;;;;;20.00;12.40;;;;;;;7.36;29.95;103385.67;106638;1286;24508;-84
2022/03/20 08:45:15;;;;;;;17.40;12.20;;;;;;;7.50;29.31;103383.80;105677;1287;22543;-86
2022/03/20 08:47:45;;;;;;;15.90;11.80;;;;;;;7.66;29.19;103381.91;107012;1287;22587;-85
2022/03/20 08:50:13;;;;;;;15.60;12.10;;;;;;;7.81;29.11;103375.48;108010;1286;22592;-83
2022/03/20 08:52:39;;;;;;;21.00;13.30;;;;;;;7.97;28.89;103375.41;108196;1281;22591;-84
2022/03/20 08:55:10;;;;;;;22.00;13.10;;;;;;;8.13;28.80;103377.09;107312;1279;22966;-84
2022/03/20 08:57:43;;;;;;;18.60;12.40;;;;;;;8.30;28.30;103377.70;106244;1286;24712;-84
2022/03/20 09:00:11;;;;;;;16.40;12.40;;;;;;;8.47;28.24;103377.66;105449;1288;22579;-85
2022/03/20 09:02:38;;;;;;;16.20;11.50;;;;;;;8.62;27.78;103376.27;105728;1284;25609;-85
2022/03/20 09:05:05;;;;;;;18.60;12.00;;;;;;;8.75;27.78;103376.16;105500;1284;24295;-85
2022/03/20 09:07:32;;;;;;;16.90;12.00;;;;;;;8.93;27.54;103376.27;104611;1287;25277;-85
2022/03/20 09:09:58;;;;;;;17.90;10.90;;;;;;;9.08;27.34;103370.46;104604;1288;23994;-85
2022/03/20 09:12:25;;;;;;;17.90;11.80;;;;;;;9.23;27.01;103368.31;104696;1287;22612;-83
2022/03/20 09:14:51;;;;;;;17.70;11.20;;;;;;;9.39;26.95;103363.16;104607;1290;22599;-85
2022/03/20 09:20:02;;;;;;;16.00;11.20;;;;;;;9.78;26.40;103362.70;104710;1287;22551;-82
2022/03/20 09:22:29;;;;;;;16.20;11.90;;;;;;;9.98;26.32;103359.48;105099;1283;24073;-83
2022/03/20 09:24:56;;;;;;;14.40;10.40;;;;;;;10.12;25.98;103360.74;105708;1274;24239;-82
2022/03/20 09:27:25;;;;;;;15.60;10.90;;;;;;;10.31;25.93;103357.63;106225;1274;25493;-83
2022/03/20 09:29:52;;;;;;;16.10;10.90;;;;;;;10.46;25.09;103357.87;106937;1273;25067;-87
2022/03/20 09:32:20;;;;;;;12.20;9.20;;;;;;;10.55;24.80;103347.64;107852;1274;22563;-87
2022/03/20 09:34:46;;;;;;;12.40;8.50;;;;;;;10.70;24.77;103349.99;107311;1274;24185;-88
2022/03/20 09:37:12;;;;;;;13.10;8.70;;;;;;;10.89;24.54;103348.39;106449;1274;25384;-87
2022/03/20 09:39:39;;;;;;;9.80;8.20;;;;;;;11.08;24.25;103346.80;106601;1274;22756;-87
2022/03/20 09:42:06;;;;;;;11.50;7.80;;;;;;;11.22;24.03;103348.73;107170;1274;22588;-92
2022/03/20 09:44:34;;;;;;;12.10;7.40;;;;;;;11.45;23.97;103341.56;107395;1274;25424;-91
2022/03/20 09:47:01;;;;;;;9.90;6.90;;;;;;;11.66;23.60;103341.75;106960;1274;22502;-92
2022/03/20 09:49:29;;;;;;;10.70;8.00;;;;;;;11.79;23.23;103339.34;106097;1274;23326;-84
2022/03/20 09:51:56;;;;;;;11.20;7.60;;;;;;;11.93;23.24;103334.33;106122;1273;25270;-85
2022/03/20 09:54:22;;;;;;;9.50;7.20;;;;;;;12.09;22.88;103335.75;105941;1276;22854;-88
2022/03/20 09:56:53;;;;;;;12.40;8.20;;;;;;;12.18;22.58;103329.50;106924;1277;24042;-86
2022/03/20 09:59:19;;;;;;;12.90;8.20;;;;;;;12.25;22.48;103332.36;106202;1274;25423;-86
2022/03/20 10:01:45;;;;;;;11.50;7.80;;;;;;;12.37;22.34;103332.89;105981;1274;24214;-84
2022/03/20 10:04:18;;;;;;;9.80;8.30;;;;;;;12.48;22.25;103332.70;105538;1281;24256;-84
2022/03/20 10:06:45;;;;;;;12.10;7.80;;;;;;;12.65;22.08;103330.38;105644;1279;24192;-86
2022/03/20 10:09:13;;;;;;;10.30;8.00;;;;;;;12.74;21.89;103330.99;105513;1281;24093;-86
2022/03/20 10:11:49;;;;;;;11.10;8.20;;;;;;;12.87;21.73;103330.83;105381;1281;25273;-86
2022/03/20 10:14:23;;;;;;;;;;;;;;;13.05;21.84;103329.73;105564;1282;22873;-86
2022/03/20 10:17:09;;;;;;;9.60;7.50;;;;;;;13.20;21.58;103327.30;105543;1281;230984;-81
2022/03/20 10:19:35;;;;;;;10.80;7.10;;;;;;;13.31;21.39;103321.59;105377;1282;23948;-80
2022/03/20 10:22:09;;;;;;;10.00;7.50;;;;;;;13.48;21.39;103320.94;105318;1276;22566;-80
2022/03/20 10:24:37;;;;;;;9.80;7.70;;;;;;;13.65;21.38;103316.08;106005;1275;22542;-77
2022/03/20 10:27:07;;;;;;;9.80;7.20;;;;;;;13.77;21.55;103313.36;105857;1276;24436;-75
2022/03/20 10:29:45;;;;;;;10.20;7.60;;;;;;;13.91;21.43;103307.88;105977;1273;22744;-79
2022/03/20 10:32:12;;;;;;;11.50;7.90;;;;;;;14.09;21.13;103304.73;105925;1274;25267;-77
2022/03/20 10:34:59;;;;;;;11.80;7.40;;;;;;;14.25;21.01;103304.54;105763;1275;22543;-75
2022/03/20 10:37:52;;;;;;;8.40;6.90;;;;;;;14.41;20.65;103301.36;106008;1274;25252;-78
2022/03/20 10:40:29;;;;;;;10.40;7.60;;;;;;;14.56;20.84;103301.48;105911;1274;22555;-76
2022/03/20 10:43:14;;;;;;;8.70;7.60;;;;;;;14.74;20.72;103306.99;105945;1274;22549;-77
2022/03/20 10:46:16;;;;;;;10.70;7.60;;;;;;;14.82;20.15;103300.98;106008;1274;22617;-79
2022/03/20 10:48:45;;;;;;;8.60;6.90;;;;;;;14.93;20.29;103302.95;105922;1276;22577;-80
2022/03/20 10:51:12;;;;;;;9.50;7.50;;;;;;;15.05;20.09;103298.39;105946;1274;23319;-89
2022/03/20 10:53:57;;;;;;;14.60;8.40;;;;;;;15.10;19.84;103294.58;106679;1274;23604;-85
2022/03/20 10:56:23;;;;;;;9.80;7.20;;;;;;;15.19;19.72;103294.04;106102;1274;25942;-85
2022/03/20 10:58:50;;;;;;;8.50;7.20;;;;;;;15.27;19.46;103294.00;106142;1274;25456;-85
2022/03/20 11:01:38;;;;;;;8.90;7.10;;;;;;;15.37;19.56;103293.64;106000;1274;25525;-85
2022/03/20 11:04:07;;;;;;;8.80;7.30;;;;;;;15.62;19.50;103295.47;105929;1274;25378;-84
2022/03/20 11:06:35;;;;;;;9.10;7.50;;;;;;;15.82;19.04;103291.17;105864;1274;22567;-86
2022/03/20 11:09:05;;;;;;;12.60;6.60;;;;;;;15.87;18.91;103278.45;105962;1274;22629;-86
2022/03/20 11:11:39;;;;;;;10.50;7.50;;;;;;;15.81;18.85;103279.25;105869;1274;22566;-84
2022/03/20 11:14:06;;;;;;;10.70;6.90;;;;;;;15.92;18.85;103273.38;105765;1274;24436;-86
2022/03/20 11:16:38;;;;;;;16.90;7.10;;;;;;;16.10;18.82;103264.23;105918;1274;24418;-86
2022/03/20 11:19:10;;;;;;;10.60;6.80;;;;;;;16.21;18.70;103264.73;105990;1275;24214;-86
2022/03/20 11:21:40;;;;;;;11.00;7.70;;;;;;;16.30;18.57;103257.38;106155;1274;24245;-85
2022/03/20 11:24:09;;;;;;;9.20;7.10;;;;;;;16.47;18.59;103254.02;106619;1274;24301;-84
2022/03/20 11:26:40;;;;;;;9.90;7.20;;;;;;;16.57;18.59;103253.43;106654;1274;25265;-86
2022/03/20 11:29:11;;;;;;;7.30;6.30;;;;;;;16.75;18.29;103245.63;106541;1274;22667;-86
2022/03/20 11:31:38;;;;;;;9.80;7.30;;;;;;;16.80;18.06;103238.55;106295;1274;22673;-86
2022/03/20 11:34:06;;;;;;;8.90;6.70;;;;;;;16.90;18.19;103234.56;106200;1273;22702;-86
2022/03/20 11:36:53;;;;;;;8.00;7.10;;;;;;;17.04;17.89;103230.23;106121;1274;23994;-84
2022/03/20 11:39:19;;;;;;;9.30;6.50;;;;;;;17.10;17.96;103226.60;106162;1273;22534;-82
2022/03/20 11:41:45;;;;;;;8.90;6.90;;;;;;;17.16;18.07;103226.09;106123;1273;22615;-84
2022/03/20 11:44:22;;;;;;;9.70;6.70;;;;;;;17.28;17.66;103228.52;105993;1274;22550;-85
2022/03/20 11:47:30;;;;;;;;;;;;;;;17.42;17.81;103225.23;105962;1274;22519;-85
2022/03/20 11:50:06;;;;;;;;;;;;;;;17.45;17.54;103217.79;105691;1281;22527;-85
2022/03/20 11:52:53;;;;;;;9.50;7.60;;;;;;;17.52;17.18;103214.10;105359;1282;25547;-85